TimeCDT,TemperatureF,Dew PointF,Humidity,Sea Level PressureIn,VisibilityMPH,Wind Direction,Wind SpeedMPH,Gust SpeedMPH,PrecipitationIn,Events,Conditions,WindDirDegrees,DateUTC
12:51 AM,69.1,64.0,84,30.08,10.0,Calm,Calm,-,N/A,,Clear,0,2011-11-03 05:51:00
1:51 AM,-9999,-9999,N/A,30.08,10.0,Calm,Calm,-,N/A,,Partly Cloudy,0,2011-11-03 06:51:00
2:11 AM,69.8,64.4,83,30.11,10.0,North,28.8,36.8,N/A,,Overcast,360,2011-11-03 07:11:00
2:17 AM,69.8,55.4,60,30.13,10.0,North,26.5,41.4,N/A,,Overcast,360,2011-11-03 07:17:00
2:51 AM,61.0,52.0,72,30.16,10.0,North,29.9,35.7,0.14,Rain,Light Rain,360,2011-11-03 07:51:00
3:51 AM,57.9,45.0,62,30.17,10.0,North,28.8,40.3,0.00,,Overcast,360,2011-11-03 08:51:00
4:01 AM,57.2,44.6,63,30.18,10.0,North,26.5,34.5,N/A,,Overcast,360,2011-11-03 09:01:00
4:51 AM,57.0,43.0,59,30.20,10.0,North,29.9,39.1,0.00,,Overcast,10,2011-11-03 09:51:00
5:51 AM,54.0,41.0,62,30.23,10.0,North,32.2,39.1,N/A,,Overcast,350,2011-11-03 10:51:00
6:51 AM,53.1,42.1,66,30.26,10.0,North,21.9,32.2,0.00,Rain,Light Rain,360,2011-11-03 11:51:00
7:51 AM,55.0,37.0,51,30.29,10.0,North,21.9,-,0.00,,Overcast,350,2011-11-03 12:51:00
8:51 AM,54.0,35.1,49,30.33,10.0,North,26.5,33.4,N/A,,Overcast,360,2011-11-03 13:51:00
9:51 AM,55.0,35.1,47,30.35,10.0,North,21.9,31.1,N/A,,Overcast,360,2011-11-03 14:51:00
10:51 AM,55.9,35.1,45,30.37,10.0,North,18.4,-,N/A,,Overcast,360,2011-11-03 15:51:00
11:51 AM,57.9,34.0,41,30.37,10.0,North,21.9,28.8,N/A,,Overcast,350,2011-11-03 16:51:00
12:51 PM,61.0,34.0,36,30.35,10.0,NNW,19.6,27.6,N/A,,Mostly Cloudy,330,2011-11-03 17:51:00
1:51 PM,64.0,32.0,30,30.31,10.0,NNW,18.4,26.5,N/A,,Scattered Clouds,340,2011-11-03 18:51:00
2:51 PM,66.9,30.0,25,30.28,10.0,NNW,15.0,20.7,N/A,,Scattered Clouds,330,2011-11-03 19:51:00
3:51 PM,69.1,27.0,21,30.25,10.0,NNW,18.4,25.3,N/A,,Partly Cloudy,340,2011-11-03 20:51:00
4:51 PM,69.1,27.0,21,30.24,10.0,NNW,16.1,-,N/A,,Partly Cloudy,340,2011-11-03 21:51:00
5:51 PM,66.9,25.0,21,30.23,10.0,North,16.1,-,N/A,,Clear,350,2011-11-03 22:51:00
6:51 PM,63.0,27.0,26,30.24,10.0,North,11.5,-,N/A,,Clear,360,2011-11-03 23:51:00
7:51 PM,60.1,30.0,32,30.25,10.0,North,9.2,-,N/A,,Clear,10,2011-11-04 00:51:00
8:51 PM,57.0,30.0,36,30.27,10.0,NNE,8.1,-,N/A,,Clear,20,2011-11-04 01:51:00
9:51 PM,55.9,30.0,37,30.27,10.0,North,6.9,-,N/A,,Clear,10,2011-11-04 02:51:00
10:51 PM,55.9,28.0,34,30.28,10.0,NNE,10.4,-,N/A,,Clear,20,2011-11-04 03:51:00
11:51 PM,53.1,27.0,37,30.27,10.0,NNE,5.8,-,N/A,,Clear,30,2011-11-04 04:51:00